Nashville, Tennessee
Current Conditions -  °F | °C
As of 11:53 PM on Friday 28 Nov 2014 (Local Time) from KBNA Reporting Station
Clear Clear  
Wind Chill: 37°   Ceiling: Unl
Heat Index: 43°   Visibility: 10mi
Dew Point: 22°   Wind: 12mph
Humidity: 43%   Direction: 180°S
Pressure: 30.14"   Gusts: NA
Location:  36.11°N, 86.68°W
Report Text: KBNA 290553Z 18010KT 10SM CLR 06/M06 A3014 RMK AO2 SLP207 T00611056 10067 20039 400891056 56009
Loading
Personal Weather Stations






























Interactive Weather Map New forecast layout! Learn more

10-Day Weather Forecast

Advertisements
Track Severe Weather on mobile